Time;durP1;ratioP1;P1;durP2;ratioP2;P2;SDS_P1;SDS_P2;PMS_P1;PMS_P2;Temp;Humidity;BMP_temperature;BMP_pressure;BME280_temperature;BME280_humidity;BME280_pressure;Samples;Min_cycle;Max_cycle;Signal;HPM_P1;HPM_P2
2023/10/20 00:02:17;;;;;;;127.00;52.30;;;;;;;6.50;100.00;98197.88;131101;1293;23415;-79
2023/10/20 00:05:18;;;;;;;149.10;57.10;;;;;;;6.51;100.00;98206.55;131011;1301;23540;-81
2023/10/20 00:08:18;;;;;;;148.60;58.70;;;;;;;6.49;100.00;98200.44;130996;1301;22607;-80
2023/10/20 00:11:19;;;;;;;145.60;57.50;;;;;;;6.49;100.00;98203.27;130913;1301;23455;-80
2023/10/20 00:14:20;;;;;;;154.10;60.80;;;;;;;6.49;100.00;98211.98;131007;1301;24293;-82
2023/10/20 00:17:22;;;;;;;151.30;59.70;;;;;;;6.51;100.00;98201.63;130969;1298;22682;-82
2023/10/20 00:20:22;;;;;;;145.80;57.70;;;;;;;6.52;100.00;98198.41;130835;1302;22634;-80
2023/10/20 00:23:23;;;;;;;143.80;58.80;;;;;;;6.52;100.00;98194.14;130978;1288;25380;-80
2023/10/20 00:26:24;;;;;;;142.10;57.90;;;;;;;6.53;100.00;98189.80;130981;1297;22950;-82
2023/10/20 00:29:25;;;;;;;143.30;61.10;;;;;;;6.54;100.00;98181.27;130848;1302;22663;-82
2023/10/20 00:32:26;;;;;;;138.10;54.40;;;;;;;6.56;100.00;98180.88;131241;1297;22451;-81
2023/10/20 00:35:27;;;;;;;;;;;;;;;6.57;100.00;98175.75;131155;1301;22561;-80
2023/10/20 00:38:28;;;;;;;143.50;55.00;;;;;;;6.57;100.00;98162.58;130869;1301;23185;-82
2023/10/20 00:41:30;;;;;;;130.70;52.20;;;;;;;6.57;100.00;98146.44;130981;1301;22768;-80
2023/10/20 00:44:30;;;;;;;139.00;55.00;;;;;;;6.55;100.00;98137.71;131607;1301;22814;-82
2023/10/20 00:47:31;;;;;;;148.70;57.10;;;;;;;6.53;100.00;98128.81;130826;1304;22975;-84
2023/10/20 00:50:33;;;;;;;134.10;52.20;;;;;;;6.54;100.00;98124.92;131096;1296;22562;-81
2023/10/20 00:53:35;;;;;;;131.90;52.40;;;;;;;6.53;100.00;98128.52;130660;1307;22646;-81
2023/10/20 00:56:35;;;;;;;137.10;54.30;;;;;;;6.51;100.00;98135.23;131156;1301;22598;-81
2023/10/20 00:59:36;;;;;;;142.60;57.40;;;;;;;6.51;100.00;98130.78;130806;1301;22614;-82
2023/10/20 01:02:36;;;;;;;;;;;;;;;6.51;100.00;98127.83;130822;1295;25351;-83
2023/10/20 01:05:38;;;;;;;140.70;55.00;;;;;;;6.51;100.00;98129.27;130829;1298;22711;-83
2023/10/20 01:08:39;;;;;;;;;;;;;;;6.51;100.00;98137.30;130621;1298;24455;-82
2023/10/20 01:11:40;;;;;;;127.60;52.80;;;;;;;6.51;100.00;98140.54;130762;1295;24623;-82
2023/10/20 01:14:40;;;;;;;130.50;56.30;;;;;;;6.50;100.00;98143.58;130869;1301;22576;-82
2023/10/20 01:17:41;;;;;;;140.70;57.20;;;;;;;6.52;100.00;98141.08;130813;1294;22563;-83
2023/10/20 01:20:41;;;;;;;130.00;54.40;;;;;;;6.55;100.00;98144.46;131453;1301;22995;-81
2023/10/20 01:23:42;;;;;;;122.30;52.90;;;;;;;6.58;100.00;98134.92;130982;1301;22614;-79
2023/10/20 01:26:43;;;;;;;124.90;54.10;;;;;;;6.56;100.00;98129.20;130993;1297;23007;-82
2023/10/20 01:29:44;;;;;;;115.50;50.70;;;;;;;6.53;100.00;98120.82;130866;1294;22594;-81
2023/10/20 01:32:45;;;;;;;120.40;52.60;;;;;;;6.52;100.00;98118.30;130796;1301;22584;-82
2023/10/20 01:35:45;;;;;;;;;;;;;;;6.51;100.00;98109.38;130850;1294;22536;-81
2023/10/20 01:38:46;;;;;;;112.80;49.70;;;;;;;6.50;100.00;98101.91;130903;1298;23675;-82
2023/10/20 01:41:47;;;;;;;119.70;52.80;;;;;;;6.49;100.00;98110.30;130870;1298;22676;-82
2023/10/20 01:44:47;;;;;;;106.40;48.80;;;;;;;6.49;100.00;98117.67;131050;1295;22595;-81
2023/10/20 01:47:49;;;;;;;118.00;52.60;;;;;;;6.49;100.00;98118.85;131020;1301;22583;-81
2023/10/20 01:50:50;;;;;;;123.70;53.10;;;;;;;6.49;100.00;98122.26;130833;1304;22607;-80
2023/10/20 01:53:50;;;;;;;118.80;49.90;;;;;;;6.53;100.00;98118.48;131018;1301;22552;-83
2023/10/20 01:56:51;;;;;;;107.90;48.10;;;;;;;6.55;100.00;98129.08;130905;1301;22608;-80
2023/10/20 01:59:52;;;;;;;112.30;49.00;;;;;;;6.56;100.00;98127.09;130896;1294;25637;-82
2023/10/20 02:02:53;;;;;;;119.00;50.50;;;;;;;6.55;100.00;98114.23;130742;1298;23483;-83
2023/10/20 02:05:54;;;;;;;107.40;48.50;;;;;;;6.55;100.00;98111.56;130954;1301;22570;-81
2023/10/20 02:09:02;;;;;;;124.70;52.50;;;;;;;6.55;100.00;98106.65;130808;1295;22574;-82
2023/10/20 02:12:14;;;;;;;110.90;51.30;;;;;;;6.52;100.00;98105.29;131115;1301;23313;-82
2023/10/20 02:15:16;;;;;;;106.50;50.20;;;;;;;6.51;100.00;98108.84;130889;1298;23941;-82
2023/10/20 02:18:17;;;;;;;112.00;51.30;;;;;;;6.50;100.00;98110.19;130852;1298;25512;-82
2023/10/20 02:21:22;;;;;;;108.20;49.30;;;;;;;6.50;100.00;98110.42;130978;1301;22673;-82
2023/10/20 02:24:28;;;;;;;106.70;49.80;;;;;;;6.50;100.00;98101.13;131043;1292;22674;-80
2023/10/20 02:27:36;;;;;;;105.50;47.90;;;;;;;6.51;100.00;98090.24;130920;1301;22690;-81
2023/10/20 02:30:37;;;;;;;106.90;48.50;;;;;;;6.52;100.00;98079.02;131476;1307;23773;-81
2023/10/20 02:33:38;;;;;;;110.40;48.00;;;;;;;6.54;100.00;98077.10;130927;1295;22601;-80
2023/10/20 02:36:39;;;;;;;106.40;48.70;;;;;;;6.55;100.00;98075.20;130929;1296;22619;-80
2023/10/20 02:39:40;;;;;;;;;;;;;;;6.55;100.00;98072.68;131119;1297;22752;-82
2023/10/20 02:42:43;;;;;;;105.20;46.80;;;;;;;6.56;100.00;98065.27;130686;1304;24352;-81
2023/10/20 02:45:49;;;;;;;112.90;51.40;;;;;;;6.57;100.00;98057.46;130812;1302;23332;-81
2023/10/20 02:48:49;;;;;;;114.70;50.70;;;;;;;6.56;100.00;98052.59;131552;1302;23178;-81
2023/10/20 02:51:50;;;;;;;112.80;50.70;;;;;;;6.56;100.00;98052.98;130760;1301;22571;-82
2023/10/20 02:54:54;;;;;;;116.60;50.70;;;;;;;6.57;100.00;98059.48;130926;1301;23027;-81
2023/10/20 02:57:55;;;;;;;113.60;49.30;;;;;;;6.60;100.00;98060.40;130894;1302;23290;-81
2023/10/20 03:00:55;;;;;;;111.00;47.90;;;;;;;6.60;100.00;98055.24;130956;1303;22580;-82
2023/10/20 03:03:57;;;;;;;112.20;49.10;;;;;;;6.61;100.00;98050.75;130961;1301;22661;-80
2023/10/20 03:06:58;;;;;;;112.50;47.90;;;;;;;6.61;100.00;98051.40;131015;1301;22571;-81
2023/10/20 03:09:59;;;;;;;107.80;48.60;;;;;;;6.60;100.00;98046.61;130864;1301;24267;-80
2023/10/20 03:12:59;;;;;;;108.70;48.50;;;;;;;6.61;100.00;98047.95;130661;1305;24285;-82
2023/10/20 03:16:00;;;;;;;101.10;44.00;;;;;;;6.60;100.00;98050.55;130692;1301;23358;-81
2023/10/20 03:19:03;;;;;;;103.20;46.40;;;;;;;6.61;100.00;98055.38;130855;1301;22601;-83
2023/10/20 03:22:04;;;;;;;107.00;45.10;;;;;;;6.61;100.00;98065.50;130847;1301;23695;-82
2023/10/20 03:25:05;;;;;;;106.50;46.60;;;;;;;6.62;100.00;98065.16;130918;1298;22605;-82
2023/10/20 03:28:06;;;;;;;101.30;45.00;;;;;;;6.64;100.00;98054.80;130979;1292;22614;-79
2023/10/20 03:31:07;;;;;;;101.50;44.50;;;;;;;6.64;100.00;98044.13;130899;1302;22841;-82
2023/10/20 03:34:08;;;;;;;106.10;44.60;;;;;;;6.64;100.00;98026.60;130972;1293;22561;-81
2023/10/20 03:37:08;;;;;;;97.80;44.20;;;;;;;6.64;100.00;98013.42;130996;1298;22632;-80
2023/10/20 03:40:16;;;;;;;96.30;44.10;;;;;;;6.64;100.00;98023.77;130987;1293;25587;-80
2023/10/20 03:43:19;;;;;;;97.10;44.80;;;;;;;6.64;100.00;98026.45;130960;1304;22662;-83
2023/10/20 03:46:20;;;;;;;98.00;44.10;;;;;;;6.65;100.00;98031.77;130979;1302;23424;-82
2023/10/20 03:49:21;;;;;;;102.90;45.40;;;;;;;6.66;100.00;98040.25;130893;1301;25307;-82
2023/10/20 03:52:23;;;;;;;97.00;45.00;;;;;;;6.67;100.00;98061.21;131089;1301;22577;-82
2023/10/20 03:55:24;;;;;;;90.70;42.60;;;;;;;6.68;100.00;98070.20;131003;1301;22562;-81
2023/10/20 03:58:29;;;;;;;95.80;40.20;;;;;;;6.71;100.00;98067.61;131119;1302;23083;-82
2023/10/20 04:01:29;;;;;;;96.10;44.50;;;;;;;6.72;100.00;98052.90;131085;1301;23356;-81
2023/10/20 04:04:30;;;;;;;104.40;45.90;;;;;;;6.71;100.00;98049.61;131044;1293;23022;-81
2023/10/20 04:07:30;;;;;;;94.60;42.10;;;;;;;6.72;100.00;98038.98;130941;1296;23423;-83
2023/10/20 04:10:35;;;;;;;101.90;45.60;;;;;;;6.72;100.00;98029.98;131029;1301;24303;-81
2023/10/20 04:13:36;;;;;;;98.80;44.30;;;;;;;6.72;100.00;98025.61;130889;1297;22604;-81
2023/10/20 04:16:39;;;;;;;97.50;44.60;;;;;;;6.71;100.00;98020.95;131102;1301;22605;-83
2023/10/20 04:19:40;;;;;;;98.30;45.30;;;;;;;6.69;100.00;98019.67;131073;1301;22622;-82
2023/10/20 04:22:43;;;;;;;91.50;44.50;;;;;;;6.71;100.00;98025.77;131154;1301;22681;-80
2023/10/20 04:25:53;;;;;;;91.40;42.10;;;;;;;6.70;100.00;98035.47;131234;1305;25379;-82
2023/10/20 04:29:13;;;;;;;94.60;42.70;;;;;;;6.70;100.00;98038.13;130987;1301;22688;-82
2023/10/20 04:46:55;;;;;;;96.60;41.50;;;;;;;6.72;100.00;98028.77;131457;1301;22796;-82
2023/10/20 05:01:49;;;;;;;90.90;41.30;;;;;;;6.74;100.00;98021.29;130686;1301;22765;-85
2023/10/20 05:04:52;;;;;;;86.50;38.40;;;;;;;6.75;100.00;98017.31;131137;1308;22840;-81
2023/10/20 05:07:52;;;;;;;87.70;39.90;;;;;;;6.74;100.00;98011.59;131109;1297;22749;-81
2023/10/20 05:10:54;;;;;;;;;;;;;;;6.75;100.00;98006.93;130972;1292;22545;-81
2023/10/20 05:13:54;;;;;;;90.80;39.00;;;;;;;6.74;100.00;97995.34;131054;1285;22545;-78
2023/10/20 05:16:55;;;;;;;92.70;38.80;;;;;;;6.74;100.00;97993.92;131095;1297;22566;-80
2023/10/20 05:19:56;;;;;;;85.20;38.10;;;;;;;6.73;100.00;97994.85;130898;1298;22566;-81
2023/10/20 05:22:56;;;;;;;97.90;41.70;;;;;;;6.70;100.00;97992.07;130911;1301;22594;-81
2023/10/20 05:25:57;;;;;;;99.10;43.00;;;;;;;6.72;100.00;97993.08;130834;1302;22714;-81
2023/10/20 05:28:59;;;;;;;99.60;43.30;;;;;;;6.72;100.00;97999.83;130981;1286;25556;-81
2023/10/20 05:31:59;;;;;;;96.60;39.60;;;;;;;6.71;100.00;97996.02;131635;1301;22611;-80
2023/10/20 05:35:01;;;;;;;95.80;42.30;;;;;;;6.72;100.00;97996.14;131244;1301;24808;-81
2023/10/20 05:38:01;;;;;;;86.20;38.00;;;;;;;6.73;100.00;97999.19;130979;1301;22638;-81
2023/10/20 05:41:02;;;;;;;94.30;39.60;;;;;;;6.73;100.00;97995.95;130950;1301;22559;-78
2023/10/20 05:44:04;;;;;;;85.90;39.70;;;;;;;6.73;100.00;97995.70;130795;1301;183075;-78
2023/10/20 05:47:05;;;;;;;91.30;38.70;;;;;;;6.75;100.00;98001.51;130826;1301;23305;-79
2023/10/20 05:50:07;;;;;;;97.10;40.50;;;;;;;6.76;100.00;97996.65;130807;1298;22631;-79
2023/10/20 05:53:08;;;;;;;96.30;41.00;;;;;;;6.79;100.00;97993.83;131175;1301;23081;-79
2023/10/20 05:56:11;;;;;;;97.10;40.50;;;;;;;6.81;100.00;97992.13;130294;1301;22575;-79
2023/10/20 05:59:12;;;;;;;95.40;38.30;;;;;;;6.84;100.00;97983.42;130176;1300;24411;-79
2023/10/20 06:02:13;;;;;;;89.60;39.60;;;;;;;6.87;100.00;97988.82;130298;1301;22606;-78
2023/10/20 06:05:14;;;;;;;;;;;;;;;6.88;100.00;97982.36;130233;1298;22688;-78
2023/10/20 06:08:14;;;;;;;92.00;40.30;;;;;;;6.88;100.00;97984.02;130315;1301;25268;-80
2023/10/20 06:11:15;;;;;;;102.50;43.10;;;;;;;6.90;100.00;97980.83;131154;1297;22559;-79
2023/10/20 06:14:15;;;;;;;89.30;38.70;;;;;;;6.92;100.00;97976.01;131161;1298;24241;-79
2023/10/20 06:17:18;;;;;;;92.80;40.30;;;;;;;6.95;100.00;97977.36;131092;1297;22567;-79
2023/10/20 06:20:18;;;;;;;89.40;37.80;;;;;;;6.96;100.00;97972.10;130316;1301;23940;-78
2023/10/20 06:23:22;;;;;;;104.00;41.80;;;;;;;6.99;100.00;97967.96;130290;1301;22596;-79
2023/10/20 06:26:23;;;;;;;99.40;43.30;;;;;;;6.99;100.00;97963.05;130281;1295;22619;-79
2023/10/20 06:32:42;;;;;;;92.00;38.70;;;;;;;7.01;100.00;97967.98;130265;1293;22609;-78
2023/10/20 06:35:51;;;;;;;100.40;39.20;;;;;;;7.04;100.00;97970.05;130300;1292;22559;-79
2023/10/20 06:38:52;;;;;;;101.90;41.00;;;;;;;7.08;100.00;97970.48;130247;1301;22638;-78
2023/10/20 06:41:53;;;;;;;91.90;37.10;;;;;;;7.12;100.00;97960.59;130262;1301;25443;-77
2023/10/20 06:44:54;;;;;;;107.80;39.90;;;;;;;7.16;100.00;97961.10;130356;1305;23481;-78
2023/10/20 06:47:54;;;;;;;97.40;38.60;;;;;;;7.17;100.00;97958.88;130302;1308;23372;-79
2023/10/20 06:50:56;;;;;;;91.60;37.00;;;;;;;7.20;100.00;97960.46;130221;1301;23313;-79
2023/10/20 06:53:57;;;;;;;90.30;38.40;;;;;;;7.22;100.00;97959.02;130282;1302;25577;-79
2023/10/20 06:56:59;;;;;;;104.10;39.00;;;;;;;7.25;100.00;97962.35;130299;1305;22688;-78
2023/10/20 07:00:06;;;;;;;99.40;38.00;;;;;;;7.27;100.00;97957.97;131201;1297;25288;-80
2023/10/20 07:03:07;;;;;;;112.10;43.00;;;;;;;7.31;100.00;97961.88;131097;1294;22663;-80
2023/10/20 07:06:09;;;;;;;;;;;;;;;7.33;100.00;97959.02;130936;1298;22647;-79
2023/10/20 07:09:13;;;;;;;96.80;37.70;;;;;;;7.35;100.00;97953.58;131038;1294;23410;-79
2023/10/20 07:12:15;;;;;;;97.00;37.60;;;;;;;7.38;100.00;97947.54;130279;1301;22577;-78
2023/10/20 07:15:16;;;;;;;111.70;40.60;;;;;;;7.39;100.00;97933.66;130213;1291;24268;-78
2023/10/20 07:18:16;;;;;;;111.20;41.70;;;;;;;7.43;100.00;97921.92;130563;1296;22623;-80
2023/10/20 07:21:17;;;;;;;111.00;42.20;;;;;;;7.48;100.00;97913.58;131114;1294;22615;-79
2023/10/20 07:24:17;;;;;;;110.10;41.40;;;;;;;7.49;100.00;97901.85;131053;1297;22574;-80
2023/10/20 07:27:20;;;;;;;101.90;41.70;;;;;;;7.55;100.00;97900.27;131003;1293;22610;-80
2023/10/20 07:30:21;;;;;;;103.80;39.90;;;;;;;7.59;100.00;97899.05;131050;1301;22616;-79
2023/10/20 07:33:22;;;;;;;111.00;43.60;;;;;;;7.65;100.00;97902.72;131086;1297;22575;-79
2023/10/20 07:36:22;;;;;;;105.00;41.60;;;;;;;7.70;100.00;97902.31;131081;1301;22618;-78
2023/10/20 07:39:23;;;;;;;100.70;40.20;;;;;;;7.74;100.00;97903.62;131089;1301;24244;-79
2023/10/20 07:42:25;;;;;;;103.80;40.60;;;;;;;7.78;100.00;97899.27;131049;1301;22690;-79
2023/10/20 07:45:28;;;;;;;100.10;40.60;;;;;;;7.78;100.00;97894.27;130914;1295;23060;-79
2023/10/20 07:48:31;;;;;;;102.40;40.90;;;;;;;7.78;100.00;97898.59;131072;1297;22556;-78
2023/10/20 07:51:32;;;;;;;98.10;39.80;;;;;;;7.79;100.00;97886.56;131140;1301;22631;-79
2023/10/20 07:54:33;;;;;;;100.90;40.90;;;;;;;7.81;100.00;97873.85;130982;1301;22697;-80
2023/10/20 07:57:35;;;;;;;101.40;40.20;;;;;;;7.83;100.00;97874.30;130850;1295;22613;-79
2023/10/20 08:00:36;;;;;;;117.00;40.40;;;;;;;7.83;100.00;97875.23;130995;1298;22795;-78
2023/10/20 08:03:36;;;;;;;109.00;42.30;;;;;;;7.83;100.00;97869.38;130311;1297;24351;-79
2023/10/20 08:06:40;;;;;;;113.70;44.70;;;;;;;7.83;100.00;97862.52;130481;1294;23025;-79
2023/10/20 08:09:40;;;;;;;119.00;43.30;;;;;;;7.84;100.00;97869.79;130277;1297;22632;-79
2023/10/20 08:12:41;;;;;;;108.70;42.50;;;;;;;7.83;100.00;97863.73;130122;1301;22746;-78
2023/10/20 08:15:42;;;;;;;99.90;39.40;;;;;;;7.83;100.00;97859.30;130489;1297;23430;-80
2023/10/20 08:18:45;;;;;;;106.30;41.70;;;;;;;7.85;100.00;97853.25;130883;1293;22601;-78
2023/10/20 08:21:45;;;;;;;112.00;43.50;;;;;;;7.88;100.00;97852.04;130430;1292;22593;-78
2023/10/20 08:24:46;;;;;;;108.40;42.70;;;;;;;7.90;100.00;97851.17;130937;1294;23930;-78
2023/10/20 08:27:57;;;;;;;116.00;42.80;;;;;;;7.91;100.00;97851.36;131067;1301;22748;-81
2023/10/20 08:31:16;;;;;;;129.00;43.70;;;;;;;7.92;100.00;97851.14;131090;1294;23793;-79
2023/10/20 08:34:17;;;;;;;110.10;41.40;;;;;;;7.92;100.00;97843.62;130864;1301;23031;-80
2023/10/20 08:37:17;;;;;;;109.80;41.40;;;;;;;7.92;100.00;97837.57;131095;1289;23107;-78
2023/10/20 08:40:20;;;;;;;113.90;45.50;;;;;;;7.93;100.00;97837.89;130432;1292;22580;-80
2023/10/20 08:43:25;;;;;;;123.70;43.10;;;;;;;7.95;100.00;97842.52;130213;1285;22739;-79
2023/10/20 08:46:29;;;;;;;113.90;42.40;;;;;;;7.96;100.00;97835.19;130841;1294;22590;-79
2023/10/20 08:49:29;;;;;;;106.20;41.90;;;;;;;7.97;100.00;97827.52;131242;1292;22569;-79
2023/10/20 08:52:31;;;;;;;109.10;42.60;;;;;;;7.99;100.00;97815.05;131545;1293;22597;-80
2023/10/20 08:55:32;;;;;;;120.10;43.00;;;;;;;8.02;100.00;97810.52;130680;1292;22858;-81
2023/10/20 08:58:36;;;;;;;106.20;42.80;;;;;;;8.02;100.00;97806.09;131279;1293;22586;-81
2023/10/20 09:01:37;;;;;;;113.90;43.60;;;;;;;8.03;100.00;97802.81;130909;1292;25411;-79
2023/10/20 09:04:37;;;;;;;115.50;43.90;;;;;;;8.04;100.00;97797.25;131889;1293;21955;-79
2023/10/20 09:07:38;;;;;;;108.10;43.70;;;;;;;8.06;100.00;97788.13;130877;1291;25773;-81
2023/10/20 09:10:49;;;;;;;110.70;42.90;;;;;;;8.09;100.00;97786.30;131274;1301;22545;-79
2023/10/20 09:13:49;;;;;;;;;;;;;;;8.13;100.00;97779.16;130765;1292;23208;-80
2023/10/20 09:16:53;;;;;;;119.60;44.30;;;;;;;8.14;100.00;97779.29;131070;1294;22575;-79
2023/10/20 09:20:05;;;;;;;122.00;45.70;;;;;;;8.18;100.00;97773.15;130360;1292;25514;-82
2023/10/20 09:23:11;;;;;;;117.50;44.50;;;;;;;8.23;100.00;97761.39;131364;1297;23232;-79
2023/10/20 09:26:12;;;;;;;127.40;44.80;;;;;;;8.26;100.00;97744.86;131213;1292;25329;-81
2023/10/20 09:29:15;;;;;;;115.00;44.70;;;;;;;8.31;100.00;97748.99;130367;1301;22579;-80
2023/10/20 09:32:16;;;;;;;110.90;43.80;;;;;;;8.33;100.00;97740.73;131826;1285;25415;-79
2023/10/20 09:35:16;;;;;;;106.60;43.30;;;;;;;8.40;100.00;97734.23;130830;1301;22573;-79
2023/10/20 09:38:26;;;;;;;112.50;45.60;;;;;;;8.45;100.00;97722.54;131404;1301;22558;-79
2023/10/20 09:41:29;;;;;;;112.00;45.20;;;;;;;8.51;100.00;97722.98;131239;1296;22612;-80
2023/10/20 09:44:48;;;;;;;117.20;46.30;;;;;;;8.59;100.00;97723.75;130449;1293;22594;-79
2023/10/20 09:47:52;;;;;;;111.00;44.20;;;;;;;8.62;100.00;97729.48;131337;1294;22618;-80
2023/10/20 09:50:55;;;;;;;105.60;43.60;;;;;;;8.64;100.00;97733.20;131363;1298;22601;-79
2023/10/20 09:53:56;;;;;;;96.10;42.70;;;;;;;8.66;100.00;97731.70;131169;1301;23362;-79
2023/10/20 09:56:57;;;;;;;100.20;44.80;;;;;;;8.69;100.00;97727.85;131391;1301;22609;-79
2023/10/20 10:00:05;;;;;;;95.10;43.20;;;;;;;8.72;100.00;97727.95;131199;1300;25322;-79
2023/10/20 10:03:05;;;;;;;100.50;45.50;;;;;;;8.75;100.00;97730.73;131269;1293;24347;-79
2023/10/20 10:06:13;;;;;;;106.90;46.80;;;;;;;8.78;100.00;97726.33;131248;1294;22456;-81
2023/10/20 10:09:15;;;;;;;103.70;46.60;;;;;;;8.81;100.00;97726.84;131257;1293;22614;-81
2023/10/20 10:12:20;;;;;;;96.50;42.80;;;;;;;8.84;100.00;97729.19;131230;1301;22575;-80
2023/10/20 10:15:22;;;;;;;97.60;44.70;;;;;;;8.87;100.00;97721.52;131212;1292;23332;-79
2023/10/20 10:18:24;;;;;;;97.20;43.20;;;;;;;8.89;100.00;97713.44;131263;1294;23869;-79
2023/10/20 10:21:26;;;;;;;103.30;46.00;;;;;;;8.91;100.00;97711.42;131313;1301;22615;-80
2023/10/20 10:24:31;;;;;;;95.50;42.60;;;;;;;8.92;100.00;97703.19;131139;1288;22588;-80
2023/10/20 10:27:32;;;;;;;95.50;44.40;;;;;;;8.95;100.00;97696.96;131427;1293;22996;-79
2023/10/20 10:30:33;;;;;;;99.30;46.50;;;;;;;8.98;100.00;97693.39;131410;1293;22600;-79
2023/10/20 10:33:34;;;;;;;91.40;42.60;;;;;;;9.01;100.00;97698.79;131128;1298;22634;-79
2023/10/20 10:36:45;;;;;;;104.90;46.70;;;;;;;9.04;100.00;97706.34;131313;1301;24952;-79
2023/10/20 10:39:46;;;;;;;109.30;48.20;;;;;;;9.07;100.00;97707.86;131292;1297;23350;-80
2023/10/20 10:42:52;;;;;;;105.70;47.10;;;;;;;9.09;100.00;97707.55;131425;1294;23404;-80
2023/10/20 10:45:53;;;;;;;101.90;48.90;;;;;;;9.10;100.00;97704.95;131230;1297;23374;-81
2023/10/20 10:48:56;;;;;;;111.20;47.50;;;;;;;9.13;100.00;97708.75;131297;1293;24300;-79
2023/10/20 10:52:07;;;;;;;105.80;50.00;;;;;;;9.15;100.00;97705.79;131475;1294;22689;-78
2023/10/20 10:55:09;;;;;;;99.50;46.70;;;;;;;9.20;100.00;97703.88;131088;1294;22593;-78
2023/10/20 10:58:12;;;;;;;111.50;50.10;;;;;;;9.22;100.00;97701.83;130335;1293;22582;-80
2023/10/20 11:01:13;;;;;;;102.50;48.40;;;;;;;9.25;100.00;97696.64;130306;1293;22564;-79
2023/10/20 11:04:14;;;;;;;113.00;49.20;;;;;;;9.28;100.00;97694.48;130377;1301;25421;-78
2023/10/20 11:07:15;;;;;;;113.10;49.20;;;;;;;9.29;100.00;97686.86;130402;1294;22555;-78
2023/10/20 11:10:18;;;;;;;;;;;;;;;9.30;100.00;97683.84;130926;1293;22566;-78
2023/10/20 11:13:21;;;;;;;105.60;45.60;;;;;;;9.32;100.00;97674.71;130486;1286;22555;-79
2023/10/20 11:16:22;;;;;;;107.90;47.60;;;;;;;9.33;100.00;97673.39;130664;1294;22562;-79
2023/10/20 11:19:23;;;;;;;;;;;;;;;9.35;100.00;97666.14;131116;1297;22574;-78
2023/10/20 11:22:23;;;;;;;94.40;41.10;;;;;;;9.37;100.00;97666.88;131406;1301;22555;-79
2023/10/20 11:25:26;;;;;;;105.10;47.40;;;;;;;9.40;100.00;97663.88;131285;1295;22576;-80
2023/10/20 11:28:27;;;;;;;95.70;43.10;;;;;;;9.47;100.00;97655.47;131511;1292;22711;-80
2023/10/20 11:31:27;;;;;;;114.00;48.20;;;;;;;9.53;100.00;97649.45;131609;1294;22605;-80
2023/10/20 11:34:28;;;;;;;111.10;48.60;;;;;;;9.57;100.00;97647.66;131394;1292;22665;-80
2023/10/20 11:37:32;;;;;;;106.40;45.70;;;;;;;9.62;100.00;97643.16;131472;1297;22637;-80
2023/10/20 11:40:32;;;;;;;109.10;47.00;;;;;;;9.69;100.00;97641.55;131462;1294;23466;-80
2023/10/20 11:43:37;;;;;;;102.50;47.40;;;;;;;9.75;100.00;97640.37;131558;1294;22561;-80
2023/10/20 11:46:38;;;;;;;105.70;47.50;;;;;;;9.82;100.00;97639.60;131368;1297;23052;-80
2023/10/20 11:49:38;;;;;;;113.70;50.00;;;;;;;9.87;100.00;97634.77;131406;1294;22570;-80
2023/10/20 11:52:39;;;;;;;104.70;47.70;;;;;;;9.93;100.00;97633.44;131292;1297;22552;-80
2023/10/20 11:55:40;;;;;;;108.40;47.50;;;;;;;9.96;100.00;97627.73;131470;1294;22775;-80
2023/10/20 11:58:40;;;;;;;113.90;50.50;;;;;;;10.02;100.00;97626.84;131291;1293;23645;-80
2023/10/20 12:01:41;;;;;;;106.30;46.50;;;;;;;10.09;100.00;97620.48;131402;1294;22622;-80
2023/10/20 12:04:42;;;;;;;;;;;;;;;10.13;100.00;97605.63;131254;1286;22571;-80
2023/10/20 12:07:42;;;;;;;93.00;45.40;;;;;;;10.17;100.00;97589.72;131368;1292;22571;-80
2023/10/20 12:10:43;;;;;;;;;;;;;;;10.22;100.00;97585.77;131274;1294;22651;-80
2023/10/20 12:13:48;;;;;;;100.10;46.60;;;;;;;10.25;100.00;97580.83;131421;1294;22569;-80
2023/10/20 12:16:48;;;;;;;91.00;46.10;;;;;;;10.29;100.00;97590.59;131260;1295;22614;-81
2023/10/20 12:19:49;;;;;;;101.40;48.60;;;;;;;10.33;100.00;97597.73;131361;1293;24333;-80
2023/10/20 12:22:54;;;;;;;;;;;;;;;10.36;100.00;97601.05;131373;1293;22581;-80
2023/10/20 12:26:04;;;;;;;90.80;45.10;;;;;;;10.39;100.00;97597.34;131361;1292;22578;-80
2023/10/20 12:29:05;;;;;;;;;;;;;;;10.43;100.00;97598.33;131562;1293;22633;-80
2023/10/20 12:32:16;;;;;;;99.80;46.40;;;;;;;10.45;100.00;97613.48;131433;1294;22726;-80
2023/10/20 12:35:17;;;;;;;87.20;46.30;;;;;;;10.43;100.00;97611.27;131449;1301;23948;-80
2023/10/20 12:38:17;;;;;;;;;;;;;;;10.43;100.00;97609.35;131363;1301;22601;-80
2023/10/20 12:41:18;;;;;;;86.20;44.90;;;;;;;10.44;100.00;97598.06;131560;1292;24463;-80
2023/10/20 12:44:18;;;;;;;90.50;44.60;;;;;;;10.45;100.00;97591.55;131273;1294;22606;-80
2023/10/20 12:47:20;;;;;;;98.50;50.30;;;;;;;10.45;100.00;97588.51;131298;1294;22668;-80
2023/10/20 12:50:20;;;;;;;88.50;44.80;;;;;;;10.49;100.00;97591.27;131191;1301;22605;-80
2023/10/20 12:53:21;;;;;;;82.30;43.90;;;;;;;10.50;100.00;97593.25;131396;1294;23072;-80
2023/10/20 12:56:22;;;;;;;87.90;48.60;;;;;;;10.50;100.00;97602.23;131295;1294;22652;-80
2023/10/20 12:59:25;;;;;;;92.80;46.90;;;;;;;10.51;100.00;97603.96;131229;1298;24244;-84
2023/10/20 13:02:26;;;;;;;87.60;45.50;;;;;;;10.50;100.00;97607.41;131109;1292;24710;-82
2023/10/20 13:05:26;;;;;;;88.00;45.00;;;;;;;10.50;100.00;97603.98;131103;1293;23363;-81
2023/10/20 13:08:29;;;;;;;;;;;;;;;10.50;100.00;97601.52;131165;1295;25380;-81
2023/10/20 13:11:30;;;;;;;82.30;42.70;;;;;;;10.50;100.00;97598.19;131235;1294;22622;-82
2023/10/20 13:14:31;;;;;;;85.80;45.50;;;;;;;10.50;100.00;97590.80;131310;1292;23714;-82
2023/10/20 13:17:33;;;;;;;86.70;44.60;;;;;;;10.50;100.00;97590.39;131180;1301;22603;-82
2023/10/20 13:20:34;;;;;;;78.90;43.70;;;;;;;10.51;100.00;97585.05;131059;1298;22769;-80
2023/10/20 13:23:35;;;;;;;89.50;46.10;;;;;;;10.52;100.00;97577.27;131119;1301;22747;-80
2023/10/20 13:26:36;;;;;;;84.20;42.60;;;;;;;10.53;100.00;97567.17;131207;1293;25309;-80
2023/10/20 13:29:37;;;;;;;;;;;;;;;10.54;100.00;97553.36;131187;1301;22578;-81
2023/10/20 13:32:38;;;;;;;73.80;42.40;;;;;;;10.55;100.00;97531.31;131240;1295;24342;-80
2023/10/20 13:35:40;;;;;;;79.00;43.10;;;;;;;10.54;100.00;97525.88;131201;1297;24374;-80
2023/10/20 13:38:41;;;;;;;85.80;43.50;;;;;;;10.59;100.00;97530.20;131299;1301;22600;-81
2023/10/20 13:41:41;;;;;;;80.30;43.70;;;;;;;10.62;100.00;97539.05;131025;1306;22633;-82
2023/10/20 13:44:42;;;;;;;81.60;43.90;;;;;;;10.64;100.00;97548.80;131023;1295;25383;-81
2023/10/20 13:47:43;;;;;;;75.90;42.10;;;;;;;10.66;100.00;97554.60;131012;1294;22716;-81
2023/10/20 13:50:44;;;;;;;75.80;42.50;;;;;;;10.69;100.00;97555.78;131144;1295;22563;-82
2023/10/20 13:53:54;;;;;;;69.40;40.10;;;;;;;10.71;100.00;97557.73;130828;1300;24272;-85
2023/10/20 13:57:47;;;;;;;73.30;40.00;;;;;;;10.71;100.00;97554.77;130576;1296;22580;-83
2023/10/20 14:01:20;;;;;;;69.60;41.00;;;;;;;10.73;100.00;97550.73;131224;1301;22640;-82
2023/10/20 14:04:33;;;;;;;71.90;41.30;;;;;;;10.73;100.00;97559.39;130972;1294;22576;-82
2023/10/20 14:07:34;;;;;;;66.90;40.10;;;;;;;10.75;100.00;97567.63;130988;1301;22559;-80
2023/10/20 14:10:37;;;;;;;66.80;40.70;;;;;;;10.75;100.00;97574.39;130789;1293;22610;-81
2023/10/20 14:13:37;;;;;;;67.60;39.70;;;;;;;10.76;100.00;97565.82;130693;1292;22678;-81
2023/10/20 14:16:40;;;;;;;62.70;39.30;;;;;;;10.77;100.00;97561.32;130701;1300;23217;-83
2023/10/20 14:19:41;;;;;;;66.90;41.90;;;;;;;10.77;100.00;97552.63;130711;1297;22590;-81